sensor_id;sensor_type;location;lat;lon;timestamp;pressure;altitude;pressure_sealevel;temperature;humidity
56042;BME280;48756;41.374;2.066;2022-09-17T00:00:59;100592.72;;;23.12;92.84
56042;BME280;48756;41.374;2.066;2022-09-17T00:03:25;100593.69;;;23.11;93.41
56042;BME280;48756;41.374;2.066;2022-09-17T00:06:10;100592.00;;;22.96;93.68
56042;BME280;48756;41.374;2.066;2022-09-17T00:08:38;100593.41;;;23.01;93.31
56042;BME280;48756;41.374;2.066;2022-09-17T00:11:15;100597.56;;;23.05;93.35
56042;BME280;48756;41.374;2.066;2022-09-17T00:13:42;100597.31;;;22.96;94.87
56042;BME280;48756;41.374;2.066;2022-09-17T00:16:08;100595.41;;;22.98;94.29
56042;BME280;48756;41.374;2.066;2022-09-17T00:18:34;100587.22;;;23.01;93.60
56042;BME280;48756;41.374;2.066;2022-09-17T00:21:01;100590.94;;;22.98;94.87
56042;BME280;48756;41.374;2.066;2022-09-17T00:23:27;100593.91;;;22.94;94.07
56042;BME280;48756;41.374;2.066;2022-09-17T00:25:53;100590.00;;;22.85;94.10
56042;BME280;48756;41.374;2.066;2022-09-17T00:28:19;100600.25;;;22.91;94.89
56042;BME280;48756;41.374;2.066;2022-09-17T00:30:45;100590.75;;;23.01;94.21
56042;BME280;48756;41.374;2.066;2022-09-17T00:33:13;100583.06;;;22.97;93.98
56042;BME280;48756;41.374;2.066;2022-09-17T00:35:39;100570.53;;;22.99;94.42
56042;BME280;48756;41.374;2.066;2022-09-17T00:38:05;100570.63;;;22.83;94.65
56042;BME280;48756;41.374;2.066;2022-09-17T00:40:30;100567.53;;;22.90;94.40
56042;BME280;48756;41.374;2.066;2022-09-17T00:42:56;100566.47;;;22.93;94.24
56042;BME280;48756;41.374;2.066;2022-09-17T00:45:22;100565.88;;;23.02;93.56
56042;BME280;48756;41.374;2.066;2022-09-17T00:48:00;100566.63;;;23.04;93.11
56042;BME280;48756;41.374;2.066;2022-09-17T00:50:38;100559.56;;;22.90;93.20
56042;BME280;48756;41.374;2.066;2022-09-17T00:53:10;100556.88;;;22.76;94.54
56042;BME280;48756;41.374;2.066;2022-09-17T00:55:41;100554.69;;;22.83;93.62
56042;BME280;48756;41.374;2.066;2022-09-17T00:58:10;100550.69;;;22.76;95.04
56042;BME280;48756;41.374;2.066;2022-09-17T01:00:36;100549.38;;;22.69;95.35
56042;BME280;48756;41.374;2.066;2022-09-17T01:03:02;100550.25;;;22.69;95.14
56042;BME280;48756;41.374;2.066;2022-09-17T01:28:21;100535.06;;;22.71;96.56
56042;BME280;48756;41.374;2.066;2022-09-17T01:36:19;100541.34;;;22.42;97.33
56042;BME280;48756;41.374;2.066;2022-09-17T01:41:34;100550.50;;;22.36;98.26
56042;BME280;48756;41.374;2.066;2022-09-17T01:44:24;100544.81;;;22.28;98.78
56042;BME280;48756;41.374;2.066;2022-09-17T01:46:57;100540.84;;;22.21;98.89
56042;BME280;48756;41.374;2.066;2022-09-17T01:49:28;100549.75;;;22.20;99.16
56042;BME280;48756;41.374;2.066;2022-09-17T01:51:56;100545.88;;;22.25;98.40
56042;BME280;48756;41.374;2.066;2022-09-17T01:54:25;100546.53;;;22.29;97.99
56042;BME280;48756;41.374;2.066;2022-09-17T01:59:36;100543.22;;;22.54;96.62
56042;BME280;48756;41.374;2.066;2022-09-17T02:02:26;100552.41;;;22.34;96.95
56042;BME280;48756;41.374;2.066;2022-09-17T02:05:05;100548.63;;;22.38;97.65
56042;BME280;48756;41.374;2.066;2022-09-17T02:07:38;100548.13;;;22.31;97.87
56042;BME280;48756;41.374;2.066;2022-09-17T02:10:12;100550.00;;;22.15;98.83
56042;BME280;48756;41.374;2.066;2022-09-17T02:12:51;100556.84;;;21.89;100.00
56042;BME280;48756;41.374;2.066;2022-09-17T02:15:25;100552.41;;;21.90;100.00
56042;BME280;48756;41.374;2.066;2022-09-17T02:18:01;100549.44;;;22.10;99.43
56042;BME280;48756;41.374;2.066;2022-09-17T02:20:38;100559.06;;;21.97;98.58
56042;BME280;48756;41.374;2.066;2022-09-17T02:23:12;100566.59;;;21.89;83.81
56042;BME280;48756;41.374;2.066;2022-09-17T02:25:46;100563.00;;;21.90;75.35
56042;BME280;48756;41.374;2.066;2022-09-17T02:28:24;100568.50;;;21.87;73.61
56042;BME280;48756;41.374;2.066;2022-09-17T02:30:53;100562.47;;;21.99;72.88
56042;BME280;48756;41.374;2.066;2022-09-17T02:33:19;100557.63;;;21.61;69.46
56042;BME280;48756;41.374;2.066;2022-09-17T02:35:45;100563.28;;;21.55;67.32
56042;BME280;48756;41.374;2.066;2022-09-17T02:38:11;100559.41;;;21.61;66.43
56042;BME280;48756;41.374;2.066;2022-09-17T02:40:46;100562.75;;;21.49;66.91
56042;BME280;48756;41.374;2.066;2022-09-17T02:57:49;100565.50;;;21.16;62.09
56042;BME280;48756;41.374;2.066;2022-09-17T03:00:14;100560.38;;;21.13;60.09
56042;BME280;48756;41.374;2.066;2022-09-17T03:02:47;100561.06;;;21.16;60.09
56042;BME280;48756;41.374;2.066;2022-09-17T03:05:17;100558.41;;;21.16;59.76
56042;BME280;48756;41.374;2.066;2022-09-17T03:07:43;100562.44;;;21.07;60.01
56042;BME280;48756;41.374;2.066;2022-09-17T03:10:09;100562.66;;;21.03;59.68
56042;BME280;48756;41.374;2.066;2022-09-17T03:12:38;100565.56;;;20.98;59.22
56042;BME280;48756;41.374;2.066;2022-09-17T03:15:04;100573.19;;;21.04;60.06
56042;BME280;48756;41.374;2.066;2022-09-17T03:17:30;100562.41;;;20.92;60.48
56042;BME280;48756;41.374;2.066;2022-09-17T03:19:56;100564.09;;;20.77;59.98
56042;BME280;48756;41.374;2.066;2022-09-17T03:22:21;100566.31;;;20.69;59.53
56042;BME280;48756;41.374;2.066;2022-09-17T03:24:47;100559.47;;;20.65;58.96
56042;BME280;48756;41.374;2.066;2022-09-17T03:27:13;100563.06;;;20.79;57.75
56042;BME280;48756;41.374;2.066;2022-09-17T03:29:38;100566.97;;;20.57;57.32
56042;BME280;48756;41.374;2.066;2022-09-17T03:32:04;100571.00;;;20.64;57.58
56042;BME280;48756;41.374;2.066;2022-09-17T03:34:30;100573.13;;;20.57;57.63
56042;BME280;48756;41.374;2.066;2022-09-17T03:36:55;100572.16;;;20.42;57.51
56042;BME280;48756;41.374;2.066;2022-09-17T03:39:21;100563.97;;;20.47;57.54
56042;BME280;48756;41.374;2.066;2022-09-17T03:41:47;100573.00;;;20.43;57.90
56042;BME280;48756;41.374;2.066;2022-09-17T03:44:12;100564.66;;;20.33;57.65
56042;BME280;48756;41.374;2.066;2022-09-17T03:46:39;100573.34;;;20.35;57.14
56042;BME280;48756;41.374;2.066;2022-09-17T03:49:05;100578.03;;;20.30;56.88
56042;BME280;48756;41.374;2.066;2022-09-17T03:51:30;100574.56;;;20.47;58.33
56042;BME280;48756;41.374;2.066;2022-09-17T03:53:56;100573.00;;;20.43;57.12
56042;BME280;48756;41.374;2.066;2022-09-17T03:56:22;100570.56;;;20.38;57.73
56042;BME280;48756;41.374;2.066;2022-09-17T03:58:47;100574.34;;;20.17;57.00
56042;BME280;48756;41.374;2.066;2022-09-17T04:01:13;100572.63;;;20.16;57.63
56042;BME280;48756;41.374;2.066;2022-09-17T04:03:39;100570.69;;;20.19;57.24
56042;BME280;48756;41.374;2.066;2022-09-17T04:06:04;100573.56;;;20.15;56.97
56042;BME280;48756;41.374;2.066;2022-09-17T04:08:30;100574.09;;;20.22;56.83
56042;BME280;48756;41.374;2.066;2022-09-17T04:10:56;100566.41;;;20.17;57.66
56042;BME280;48756;41.374;2.066;2022-09-17T04:13:22;100568.19;;;20.16;58.08
56042;BME280;48756;41.374;2.066;2022-09-17T04:15:47;100573.84;;;20.09;57.72
56042;BME280;48756;41.374;2.066;2022-09-17T04:18:13;100581.59;;;19.96;57.41
56042;BME280;48756;41.374;2.066;2022-09-17T04:20:39;100594.97;;;19.93;57.24
56042;BME280;48756;41.374;2.066;2022-09-17T04:23:05;100588.59;;;19.97;57.03
56042;BME280;48756;41.374;2.066;2022-09-17T04:25:32;100590.97;;;20.02;56.74
56042;BME280;48756;41.374;2.066;2022-09-17T04:27:57;100599.06;;;19.81;58.26
56042;BME280;48756;41.374;2.066;2022-09-17T04:30:23;100595.56;;;19.81;57.86
56042;BME280;48756;41.374;2.066;2022-09-17T04:32:49;100598.53;;;19.92;57.50
56042;BME280;48756;41.374;2.066;2022-09-17T04:35:14;100596.09;;;19.87;58.11
56042;BME280;48756;41.374;2.066;2022-09-17T04:37:40;100608.69;;;19.82;57.41
56042;BME280;48756;41.374;2.066;2022-09-17T04:40:06;100605.34;;;19.79;58.51
56042;BME280;48756;41.374;2.066;2022-09-17T04:42:32;100606.91;;;19.83;57.65
56042;BME280;48756;41.374;2.066;2022-09-17T04:44:57;100608.38;;;19.71;58.40
56042;BME280;48756;41.374;2.066;2022-09-17T04:47:23;100618.88;;;19.73;57.19
56042;BME280;48756;41.374;2.066;2022-09-17T04:49:49;100620.38;;;19.78;57.04
56042;BME280;48756;41.374;2.066;2022-09-17T04:52:15;100623.97;;;19.95;57.67
56042;BME280;48756;41.374;2.066;2022-09-17T04:54:40;100629.25;;;19.58;58.79
56042;BME280;48756;41.374;2.066;2022-09-17T04:57:06;100628.09;;;19.64;58.42
56042;BME280;48756;41.374;2.066;2022-09-17T04:59:31;100634.41;;;19.62;58.40
56042;BME280;48756;41.374;2.066;2022-09-17T05:01:57;100632.47;;;19.65;57.71
56042;BME280;48756;41.374;2.066;2022-09-17T05:04:22;100634.09;;;19.68;57.61
56042;BME280;48756;41.374;2.066;2022-09-17T05:06:48;100642.09;;;19.66;58.97
56042;BME280;48756;41.374;2.066;2022-09-17T05:09:14;100641.91;;;19.52;58.56
56042;BME280;48756;41.374;2.066;2022-09-17T05:11:39;100641.31;;;19.64;58.23
56042;BME280;48756;41.374;2.066;2022-09-17T05:14:05;100650.25;;;19.62;59.17
56042;BME280;48756;41.374;2.066;2022-09-17T05:16:30;100643.69;;;19.51;59.49
56042;BME280;48756;41.374;2.066;2022-09-17T05:18:56;100651.63;;;19.70;58.92
56042;BME280;48756;41.374;2.066;2022-09-17T05:21:22;100650.97;;;19.65;58.68
56042;BME280;48756;41.374;2.066;2022-09-17T05:23:47;100655.41;;;19.65;59.04
56042;BME280;48756;41.374;2.066;2022-09-17T05:26:13;100673.84;;;19.47;59.20
56042;BME280;48756;41.374;2.066;2022-09-17T05:28:39;100663.13;;;19.50;59.27
56042;BME280;48756;41.374;2.066;2022-09-17T05:31:05;100667.41;;;19.53;59.53
56042;BME280;48756;41.374;2.066;2022-09-17T05:33:30;100672.56;;;19.56;58.65
56042;BME280;48756;41.374;2.066;2022-09-17T05:35:56;100674.91;;;19.62;58.49
56042;BME280;48756;41.374;2.066;2022-09-17T05:38:22;100677.53;;;19.62;58.47
56042;BME280;48756;41.374;2.066;2022-09-17T05:40:47;100678.97;;;19.50;58.47
56042;BME280;48756;41.374;2.066;2022-09-17T05:43:13;100681.69;;;19.49;59.11
56042;BME280;48756;41.374;2.066;2022-09-17T05:45:39;100683.78;;;19.61;59.30
56042;BME280;48756;41.374;2.066;2022-09-17T05:48:05;100688.25;;;19.40;59.86
56042;BME280;48756;41.374;2.066;2022-09-17T05:50:31;100694.38;;;19.41;59.46
56042;BME280;48756;41.374;2.066;2022-09-17T05:53:02;100690.97;;;19.39;60.29
56042;BME280;48756;41.374;2.066;2022-09-17T05:55:28;100691.19;;;19.53;59.53
56042;BME280;48756;41.374;2.066;2022-09-17T05:57:53;100694.13;;;19.47;59.58
56042;BME280;48756;41.374;2.066;2022-09-17T06:00:19;100691.13;;;19.54;59.04
56042;BME280;48756;41.374;2.066;2022-09-17T06:02:44;100700.13;;;19.50;59.61
56042;BME280;48756;41.374;2.066;2022-09-17T06:05:11;100693.56;;;19.59;59.32
56042;BME280;48756;41.374;2.066;2022-09-17T06:07:37;100705.28;;;19.72;59.48
56042;BME280;48756;41.374;2.066;2022-09-17T06:10:04;100709.19;;;19.64;59.83
56042;BME280;48756;41.374;2.066;2022-09-17T06:12:30;100720.06;;;19.57;59.17
56042;BME280;48756;41.374;2.066;2022-09-17T06:14:56;100708.97;;;19.68;59.13
56042;BME280;48756;41.374;2.066;2022-09-17T06:17:21;100715.13;;;19.69;58.98
56042;BME280;48756;41.374;2.066;2022-09-17T06:19:47;100710.03;;;19.83;58.67
56042;BME280;48756;41.374;2.066;2022-09-17T06:22:12;100720.47;;;19.67;59.36
56042;BME280;48756;41.374;2.066;2022-09-17T06:24:38;100709.81;;;19.50;60.32
56042;BME280;48756;41.374;2.066;2022-09-17T06:27:03;100705.44;;;19.69;59.48
56042;BME280;48756;41.374;2.066;2022-09-17T06:29:29;100712.19;;;19.75;59.54
56042;BME280;48756;41.374;2.066;2022-09-17T06:31:57;100710.03;;;19.83;59.54
56042;BME280;48756;41.374;2.066;2022-09-17T06:34:24;100718.97;;;19.80;58.89
56042;BME280;48756;41.374;2.066;2022-09-17T06:36:49;100713.47;;;19.85;59.46
56042;BME280;48756;41.374;2.066;2022-09-17T06:39:15;100709.66;;;19.91;59.17
56042;BME280;48756;41.374;2.066;2022-09-17T06:41:40;100718.81;;;20.02;58.98
56042;BME280;48756;41.374;2.066;2022-09-17T06:44:07;100717.47;;;19.94;59.26
56042;BME280;48756;41.374;2.066;2022-09-17T06:46:33;100719.50;;;20.06;58.74
56042;BME280;48756;41.374;2.066;2022-09-17T06:48:59;100725.50;;;20.09;59.58
56042;BME280;48756;41.374;2.066;2022-09-17T06:51:25;100718.22;;;20.14;58.17
56042;BME280;48756;41.374;2.066;2022-09-17T06:53:50;100715.91;;;20.07;58.40
56042;BME280;48756;41.374;2.066;2022-09-17T06:56:19;100729.69;;;20.13;58.51
56042;BME280;48756;41.374;2.066;2022-09-17T06:58:44;100721.41;;;20.21;57.65
56042;BME280;48756;41.374;2.066;2022-09-17T07:01:11;100732.97;;;20.01;59.29
56042;BME280;48756;41.374;2.066;2022-09-17T07:03:38;100727.06;;;20.13;58.61
56042;BME280;48756;41.374;2.066;2022-09-17T07:06:07;100732.53;;;20.28;58.14
56042;BME280;48756;41.374;2.066;2022-09-17T07:08:37;100733.47;;;20.27;58.16
56042;BME280;48756;41.374;2.066;2022-09-17T07:11:03;100739.06;;;20.21;58.20
56042;BME280;48756;41.374;2.066;2022-09-17T07:13:29;100741.22;;;20.12;58.84
56042;BME280;48756;41.374;2.066;2022-09-17T07:15:56;100740.28;;;20.13;59.29
56042;BME280;48756;41.374;2.066;2022-09-17T07:18:22;100741.53;;;20.06;58.90
56042;BME280;48756;41.374;2.066;2022-09-17T07:20:55;100750.06;;;20.11;58.20
56042;BME280;48756;41.374;2.066;2022-09-17T07:23:22;100739.25;;;19.99;59.06
56042;BME280;48756;41.374;2.066;2022-09-17T07:25:56;100746.56;;;19.94;59.28
56042;BME280;48756;41.374;2.066;2022-09-17T07:28:23;100741.63;;;19.86;59.74
56042;BME280;48756;41.374;2.066;2022-09-17T07:30:50;100757.94;;;20.13;58.49
56042;BME280;48756;41.374;2.066;2022-09-17T07:33:17;100750.94;;;20.12;59.57
56042;BME280;48756;41.374;2.066;2022-09-17T07:36:22;100761.13;;;20.38;59.42
56042;BME280;48756;41.374;2.066;2022-09-17T07:38:48;100768.09;;;20.22;58.85
56042;BME280;48756;41.374;2.066;2022-09-17T07:41:15;100769.16;;;20.54;57.65
56042;BME280;48756;41.374;2.066;2022-09-17T07:43:42;100767.38;;;20.89;56.72
56042;BME280;48756;41.374;2.066;2022-09-17T07:46:12;100768.94;;;20.76;56.12
56042;BME280;48756;41.374;2.066;2022-09-17T07:48:39;100771.13;;;20.68;57.31
56042;BME280;48756;41.374;2.066;2022-09-17T07:51:05;100773.00;;;20.66;57.43
56042;BME280;48756;41.374;2.066;2022-09-17T07:53:31;100774.94;;;20.79;56.79
56042;BME280;48756;41.374;2.066;2022-09-17T07:55:58;100783.63;;;21.16;56.21
56042;BME280;48756;41.374;2.066;2022-09-17T07:58:32;100787.63;;;21.07;56.02
56042;BME280;48756;41.374;2.066;2022-09-17T08:01:06;100787.84;;;21.20;55.48
56042;BME280;48756;41.374;2.066;2022-09-17T08:03:33;100782.63;;;21.36;55.15
56042;BME280;48756;41.374;2.066;2022-09-17T08:08:30;100788.19;;;21.96;54.91
56042;BME280;48756;41.374;2.066;2022-09-17T08:10:59;100783.78;;;21.95;54.48
56042;BME280;48756;41.374;2.066;2022-09-17T08:13:25;100786.69;;;21.90;54.48
56042;BME280;48756;41.374;2.066;2022-09-17T08:15:51;100785.75;;;21.91;53.61
56042;BME280;48756;41.374;2.066;2022-09-17T08:18:17;100792.19;;;22.03;53.35
56042;BME280;48756;41.374;2.066;2022-09-17T08:20:42;100786.78;;;21.89;54.11
56042;BME280;48756;41.374;2.066;2022-09-17T08:23:08;100795.66;;;22.21;54.47
56042;BME280;48756;41.374;2.066;2022-09-17T08:25:34;100793.28;;;22.46;52.46
56042;BME280;48756;41.374;2.066;2022-09-17T08:28:00;100801.63;;;22.09;53.27
56042;BME280;48756;41.374;2.066;2022-09-17T08:30:28;100794.44;;;22.26;53.08
56042;BME280;48756;41.374;2.066;2022-09-17T08:32:56;100807.75;;;21.93;53.66
56042;BME280;48756;41.374;2.066;2022-09-17T08:35:21;100799.59;;;22.59;52.10
56042;BME280;48756;41.374;2.066;2022-09-17T08:37:53;100804.38;;;22.07;53.24
56042;BME280;48756;41.374;2.066;2022-09-17T08:40:20;100808.81;;;22.07;53.43
56042;BME280;48756;41.374;2.066;2022-09-17T08:43:00;100810.91;;;21.84;53.40
56042;BME280;48756;41.374;2.066;2022-09-17T08:45:27;100812.13;;;21.94;52.29
56042;BME280;48756;41.374;2.066;2022-09-17T08:48:01;100813.28;;;22.06;52.59
56042;BME280;48756;41.374;2.066;2022-09-17T08:50:31;100817.81;;;22.04;51.84
56042;BME280;48756;41.374;2.066;2022-09-17T08:55:45;100820.75;;;21.82;53.52
56042;BME280;48756;41.374;2.066;2022-09-17T09:06:35;100827.53;;;22.97;50.42
56042;BME280;48756;41.374;2.066;2022-09-17T09:09:09;100827.44;;;22.52;51.83
56042;BME280;48756;41.374;2.066;2022-09-17T09:11:36;100826.97;;;22.30;52.17
56042;BME280;48756;41.374;2.066;2022-09-17T09:16:41;100820.78;;;22.45;52.03
56042;BME280;48756;41.374;2.066;2022-09-17T09:22:13;100817.00;;;22.95;50.39
56042;BME280;48756;41.374;2.066;2022-09-17T09:28:05;100826.31;;;22.72;50.91
56042;BME280;48756;41.374;2.066;2022-09-17T09:33:15;100831.09;;;23.26;49.02
56042;BME280;48756;41.374;2.066;2022-09-17T09:35:43;100828.78;;;24.19;48.19
56042;BME280;48756;41.374;2.066;2022-09-17T09:44:09;100835.69;;;23.52;48.61
56042;BME280;48756;41.374;2.066;2022-09-17T09:49:33;100834.78;;;25.03;46.65
56042;BME280;48756;41.374;2.066;2022-09-17T09:52:19;100836.19;;;23.73;47.83
56042;BME280;48756;41.374;2.066;2022-09-17T10:05:34;100827.28;;;24.15;47.23
56042;BME280;48756;41.374;2.066;2022-09-17T10:08:10;100829.78;;;24.72;46.33
56042;BME280;48756;41.374;2.066;2022-09-17T10:10:36;100820.56;;;24.63;46.06
56042;BME280;48756;41.374;2.066;2022-09-17T10:13:10;100823.81;;;25.21;45.24
56042;BME280;48756;41.374;2.066;2022-09-17T10:15:39;100824.28;;;24.48;46.28
56042;BME280;48756;41.374;2.066;2022-09-17T10:18:19;100828.25;;;24.55;46.75
56042;BME280;48756;41.374;2.066;2022-09-17T10:20:57;100825.63;;;24.41;47.00
56042;BME280;48756;41.374;2.066;2022-09-17T10:23:25;100821.16;;;24.41;46.46
56042;BME280;48756;41.374;2.066;2022-09-17T10:25:52;100824.13;;;23.81;47.67
56042;BME280;48756;41.374;2.066;2022-09-17T10:28:28;100825.38;;;24.17;48.59
56042;BME280;48756;41.374;2.066;2022-09-17T10:31:05;100825.75;;;24.25;48.16
56042;BME280;48756;41.374;2.066;2022-09-17T10:33:37;100821.94;;;24.96;46.85
56042;BME280;48756;41.374;2.066;2022-09-17T10:36:06;100822.22;;;25.44;45.69
56042;BME280;48756;41.374;2.066;2022-09-17T10:38:38;100812.06;;;25.61;44.74
56042;BME280;48756;41.374;2.066;2022-09-17T10:41:20;100806.72;;;26.71;42.54
56042;BME280;48756;41.374;2.066;2022-09-17T10:43:48;100814.50;;;26.74;43.03
56042;BME280;48756;41.374;2.066;2022-09-17T10:46:17;100805.06;;;26.58;43.92
56042;BME280;48756;41.374;2.066;2022-09-17T10:51:41;100804.13;;;26.35;44.97
56042;BME280;48756;41.374;2.066;2022-09-17T10:54:34;100807.38;;;26.51;45.76
56042;BME280;48756;41.374;2.066;2022-09-17T10:57:06;100814.41;;;26.15;45.50
56042;BME280;48756;41.374;2.066;2022-09-17T10:59:56;100810.34;;;25.86;45.65
56042;BME280;48756;41.374;2.066;2022-09-17T11:11:09;100799.22;;;27.45;43.54
56042;BME280;48756;41.374;2.066;2022-09-17T11:13:56;100800.09;;;26.64;44.36
56042;BME280;48756;41.374;2.066;2022-09-17T11:19:30;100796.09;;;27.73;42.39
56042;BME280;48756;41.374;2.066;2022-09-17T11:24:53;100799.38;;;27.66;43.54
56042;BME280;48756;41.374;2.066;2022-09-17T11:30:19;100795.50;;;26.66;45.42
56042;BME280;48756;41.374;2.066;2022-09-17T11:35:26;100801.09;;;26.98;43.77
56042;BME280;48756;41.374;2.066;2022-09-17T11:37:57;100798.66;;;26.95;43.00
56042;BME280;48756;41.374;2.066;2022-09-17T11:40:45;100795.41;;;27.03;44.00
56042;BME280;48756;41.374;2.066;2022-09-17T11:43:20;100796.75;;;27.08;43.13
56042;BME280;48756;41.374;2.066;2022-09-17T11:46:21;100796.91;;;27.29;44.93
56042;BME280;48756;41.374;2.066;2022-09-17T11:49:12;100799.00;;;26.19;46.93
56042;BME280;48756;41.374;2.066;2022-09-17T11:51:47;100788.50;;;26.76;46.43
56042;BME280;48756;41.374;2.066;2022-09-17T11:54:31;100796.16;;;27.27;44.73
56042;BME280;48756;41.374;2.066;2022-09-17T11:57:08;100789.53;;;28.21;45.04
56042;BME280;48756;41.374;2.066;2022-09-17T11:59:40;100790.72;;;27.51;49.28
56042;BME280;48756;41.374;2.066;2022-09-17T12:04:59;100794.19;;;27.07;50.03
56042;BME280;48756;41.374;2.066;2022-09-17T12:07:40;100787.53;;;27.80;49.10
56042;BME280;48756;41.374;2.066;2022-09-17T12:16:42;100793.34;;;28.29;49.21
56042;BME280;48756;41.374;2.066;2022-09-17T12:18:59;100790.34;;;28.96;46.66
56042;BME280;48756;41.374;2.066;2022-09-17T12:21:48;100786.75;;;28.86;46.68
56042;BME280;48756;41.374;2.066;2022-09-17T12:24:26;100776.75;;;28.35;48.17
56042;BME280;48756;41.374;2.066;2022-09-17T12:27:19;100782.88;;;28.04;48.43
56042;BME280;48756;41.374;2.066;2022-09-17T12:30:07;100778.06;;;27.20;50.49
56042;BME280;48756;41.374;2.066;2022-09-17T12:38:29;100784.50;;;27.28;51.87
56042;BME280;48756;41.374;2.066;2022-09-17T12:52:01;100775.09;;;27.00;52.60
56042;BME280;48756;41.374;2.066;2022-09-17T12:54:38;100771.50;;;26.89;52.47
56042;BME280;48756;41.374;2.066;2022-09-17T12:57:37;100771.19;;;26.58;54.27
56042;BME280;48756;41.374;2.066;2022-09-17T13:00:12;100773.44;;;26.75;53.12
56042;BME280;48756;41.374;2.066;2022-09-17T13:20:24;100763.25;;;26.92;53.48
56042;BME280;48756;41.374;2.066;2022-09-17T13:22:53;100756.31;;;26.89;53.04
56042;BME280;48756;41.374;2.066;2022-09-17T13:25:20;100764.19;;;26.79;53.64
56042;BME280;48756;41.374;2.066;2022-09-17T13:27:47;100763.06;;;27.06;54.82
56042;BME280;48756;41.374;2.066;2022-09-17T13:30:17;100768.59;;;26.80;53.29
56042;BME280;48756;41.374;2.066;2022-09-17T13:32:45;100767.69;;;27.15;52.53
56042;BME280;48756;41.374;2.066;2022-09-17T13:37:39;100769.28;;;27.29;52.11
56042;BME280;48756;41.374;2.066;2022-09-17T13:42:49;100769.16;;;26.38;55.87
56042;BME280;48756;41.374;2.066;2022-09-17T13:45:17;100770.75;;;26.40;55.07
56042;BME280;48756;41.374;2.066;2022-09-17T13:48:17;100777.19;;;26.73;55.38
56042;BME280;48756;41.374;2.066;2022-09-17T13:50:45;100769.28;;;26.71;55.30
56042;BME280;48756;41.374;2.066;2022-09-17T13:58:07;100761.41;;;26.81;54.20
56042;BME280;48756;41.374;2.066;2022-09-17T14:13:52;100775.09;;;27.00;52.40
56042;BME280;48756;41.374;2.066;2022-09-17T14:30:03;100776.06;;;26.64;54.19
56042;BME280;48756;41.374;2.066;2022-09-17T14:32:35;100775.63;;;26.46;54.52
56042;BME280;48756;41.374;2.066;2022-09-17T14:35:13;100778.13;;;26.37;54.73
56042;BME280;48756;41.374;2.066;2022-09-17T14:37:41;100778.94;;;26.50;54.48
56042;BME280;48756;41.374;2.066;2022-09-17T14:40:10;100779.97;;;26.23;53.93
56042;BME280;48756;41.374;2.066;2022-09-17T14:42:38;100773.28;;;27.01;52.92
56042;BME280;48756;41.374;2.066;2022-09-17T14:45:16;100779.09;;;26.36;54.81
56042;BME280;48756;41.374;2.066;2022-09-17T14:47:43;100774.22;;;26.53;54.92
56042;BME280;48756;41.374;2.066;2022-09-17T14:50:19;100773.53;;;26.02;55.66
56042;BME280;48756;41.374;2.066;2022-09-17T14:52:52;100772.53;;;26.64;54.57
56042;BME280;48756;41.374;2.066;2022-09-17T14:55:26;100776.84;;;26.89;52.65
56042;BME280;48756;41.374;2.066;2022-09-17T14:57:58;100772.75;;;26.96;52.29
56042;BME280;48756;41.374;2.066;2022-09-17T15:00:35;100779.41;;;26.07;55.54
56042;BME280;48756;41.374;2.066;2022-09-17T15:03:02;100781.16;;;26.19;54.40
56042;BME280;48756;41.374;2.066;2022-09-17T15:05:31;100776.53;;;26.58;54.20
56042;BME280;48756;41.374;2.066;2022-09-17T15:08:16;100771.44;;;27.01;52.50
56042;BME280;48756;41.374;2.066;2022-09-17T15:10:54;100779.00;;;27.07;52.54
56042;BME280;48756;41.374;2.066;2022-09-17T15:13:34;100772.22;;;26.79;54.13
56042;BME280;48756;41.374;2.066;2022-09-17T15:16:24;100779.78;;;26.27;53.56
56042;BME280;48756;41.374;2.066;2022-09-17T15:19:02;100778.50;;;26.19;55.21
56042;BME280;48756;41.374;2.066;2022-09-17T15:21:38;100771.78;;;26.50;55.20
56042;BME280;48756;41.374;2.066;2022-09-17T15:26:50;100782.34;;;26.52;55.74
56042;BME280;48756;41.374;2.066;2022-09-17T15:29:20;100786.09;;;26.25;54.27
56042;BME280;48756;41.374;2.066;2022-09-17T15:31:47;100772.81;;;26.48;54.55
56042;BME280;48756;41.374;2.066;2022-09-17T15:34:15;100775.19;;;26.52;54.13
56042;BME280;48756;41.374;2.066;2022-09-17T15:37:04;100773.84;;;26.58;54.82
56042;BME280;48756;41.374;2.066;2022-09-17T15:39:38;100774.16;;;26.42;55.04
56042;BME280;48756;41.374;2.066;2022-09-17T15:42:04;100783.44;;;26.13;54.32
56042;BME280;48756;41.374;2.066;2022-09-17T15:44:29;100786.75;;;25.80;56.79
56042;BME280;48756;41.374;2.066;2022-09-17T15:50:22;100791.97;;;26.18;55.75
56042;BME280;48756;41.374;2.066;2022-09-17T15:52:49;100789.91;;;25.98;57.24
56042;BME280;48756;41.374;2.066;2022-09-17T15:55:31;100791.91;;;25.70;57.30
56042;BME280;48756;41.374;2.066;2022-09-17T15:57:58;100798.94;;;25.84;56.66
56042;BME280;48756;41.374;2.066;2022-09-17T16:00:24;100782.81;;;25.85;54.91
56042;BME280;48756;41.374;2.066;2022-09-17T16:02:50;100781.75;;;25.62;57.87
56042;BME280;48756;41.374;2.066;2022-09-17T16:07:43;100781.47;;;25.42;57.65
56042;BME280;48756;41.374;2.066;2022-09-17T16:10:11;100786.56;;;25.57;57.40
56042;BME280;48756;41.374;2.066;2022-09-17T16:12:37;100790.00;;;25.47;56.80
56042;BME280;48756;41.374;2.066;2022-09-17T16:15:04;100787.72;;;25.53;58.09
56042;BME280;48756;41.374;2.066;2022-09-17T16:20:17;100785.50;;;25.73;56.25
56042;BME280;48756;41.374;2.066;2022-09-17T16:22:44;100783.03;;;25.57;58.10
56042;BME280;48756;41.374;2.066;2022-09-17T16:25:12;100786.56;;;25.57;57.12
56042;BME280;48756;41.374;2.066;2022-09-17T16:27:48;100780.47;;;25.55;57.78
56042;BME280;48756;41.374;2.066;2022-09-17T16:30:18;100776.44;;;25.50;57.48
56042;BME280;48756;41.374;2.066;2022-09-17T16:32:44;100780.69;;;25.52;57.06